createdAt,value
2017-09-08T00:00:28.120Z,4.97
2017-09-08T00:03:00.048Z,3.77
2017-09-08T00:05:31.523Z,4.33
2017-09-08T00:08:03.696Z,4.10
2017-09-08T00:10:35.584Z,4.00
2017-09-08T00:13:07.322Z,5.10
2017-09-08T00:15:39.018Z,4.53
2017-09-08T00:18:13.146Z,3.47
2017-09-08T00:20:44.650Z,4.40
2017-09-08T00:23:16.419Z,5.03
2017-09-08T00:25:47.870Z,4.20
2017-09-08T00:28:19.865Z,4.97
2017-09-08T00:30:51.593Z,3.67
2017-09-08T00:33:23.417Z,3.40
2017-09-08T00:35:55.137Z,4.63
2017-09-08T00:38:26.747Z,4.53
2017-09-08T00:40:58.816Z,4.97
2017-09-08T00:43:30.897Z,4.73
2017-09-08T00:46:02.657Z,4.50
2017-09-08T00:48:34.621Z,4.50
2017-09-08T00:51:06.489Z,4.13
2017-09-08T00:53:38.515Z,4.20
2017-09-08T00:56:11.920Z,4.40
2017-09-08T00:58:43.595Z,4.00
2017-09-08T01:01:16.773Z,5.13
2017-09-08T01:03:48.456Z,3.77
2017-09-08T01:06:19.742Z,4.87
2017-09-08T01:08:51.417Z,4.80
2017-09-08T01:11:23.123Z,4.20
2017-09-08T01:13:55.030Z,4.50
2017-09-08T01:16:26.766Z,3.93
2017-09-08T01:18:58.637Z,4.00
2017-09-08T01:21:30.608Z,3.77
2017-09-08T01:24:04.120Z,5.00
2017-09-08T01:26:36.100Z,3.80
2017-09-08T01:29:08.514Z,3.63
2017-09-08T01:31:40.920Z,3.50
2017-09-08T01:34:12.764Z,3.33
2017-09-08T01:36:44.482Z,4.27
2017-09-08T01:39:17.505Z,3.83
2017-09-08T01:41:49.070Z,3.77
2017-09-08T01:44:21.000Z,4.37
2017-09-08T01:46:52.641Z,4.00
2017-09-08T01:49:24.473Z,3.80
2017-09-08T01:51:56.014Z,3.57
2017-09-08T01:54:27.897Z,3.67
2017-09-08T01:56:59.170Z,3.20
2017-09-08T01:59:30.838Z,4.33
2017-09-08T02:02:02.571Z,4.43
2017-09-08T02:04:34.290Z,4.00
2017-09-08T02:07:06.262Z,4.53
2017-09-08T02:09:37.953Z,3.50
2017-09-08T02:12:11.512Z,3.90
2017-09-08T02:14:45.015Z,3.07
2017-09-08T02:17:18.131Z,3.93
2017-09-08T02:19:50.085Z,3.50
2017-09-08T02:22:21.626Z,3.87
2017-09-08T02:24:53.363Z,3.43
2017-09-08T02:27:25.474Z,3.30
2017-09-08T02:29:57.471Z,4.07
2017-09-08T02:32:29.490Z,4.77
2017-09-08T02:35:01.248Z,3.50
2017-09-08T02:37:32.933Z,4.13
2017-09-08T02:40:04.711Z,3.33
2017-09-08T02:42:37.019Z,3.00
2017-09-08T02:45:11.369Z,3.40
2017-09-08T02:47:43.238Z,3.30
2017-09-08T02:50:18.113Z,3.57
2017-09-08T02:52:50.076Z,3.37
2017-09-08T02:55:21.566Z,3.97
2017-09-08T02:57:52.986Z,3.90
2017-09-08T03:00:24.613Z,3.63
2017-09-08T03:02:56.287Z,4.20
2017-09-08T03:05:27.955Z,3.73
2017-09-08T03:07:59.999Z,3.30
2017-09-08T03:10:31.644Z,3.60
2017-09-08T03:13:03.479Z,3.23
2017-09-08T03:15:35.528Z,3.50
2017-09-08T03:18:07.372Z,3.20
2017-09-08T03:20:39.585Z,2.80
2017-09-08T03:23:14.297Z,3.40
2017-09-08T03:25:46.020Z,3.67
2017-09-08T03:28:17.947Z,2.93
2017-09-08T03:30:49.698Z,3.67
2017-09-08T03:33:21.542Z,3.20
2017-09-08T03:35:53.355Z,3.43
2017-09-08T03:38:25.137Z,3.30
2017-09-08T03:40:57.321Z,3.47
2017-09-08T03:43:28.717Z,3.57
2017-09-08T03:46:00.517Z,3.43
2017-09-08T03:48:32.897Z,2.90
2017-09-08T03:51:04.640Z,3.27
2017-09-08T03:53:36.471Z,3.40
2017-09-08T03:56:07.752Z,3.17
2017-09-08T03:58:38.934Z,4.07
2017-09-08T04:01:13.305Z,3.30
2017-09-08T04:03:44.808Z,3.50
2017-09-08T04:06:17.269Z,3.50
2017-09-08T04:08:48.798Z,3.30
2017-09-08T04:11:20.623Z,3.27
2017-09-08T04:13:52.288Z,3.80
2017-09-08T04:16:23.971Z,4.00
2017-09-08T04:18:55.904Z,3.73
2017-09-08T04:21:27.601Z,3.73
2017-09-08T04:23:59.061Z,3.50
2017-09-08T04:26:30.647Z,3.60
2017-09-08T04:29:02.272Z,3.43
2017-09-08T04:31:34.779Z,3.30
2017-09-08T04:34:05.891Z,3.27
2017-09-08T04:36:37.398Z,3.50
2017-09-08T04:39:08.739Z,3.30
2017-09-08T04:41:41.732Z,3.87
2017-09-08T04:44:15.398Z,3.53
2017-09-08T04:46:47.317Z,3.73
2017-09-08T04:49:19.317Z,4.27
2017-09-08T04:51:50.886Z,4.03
2017-09-08T04:54:22.870Z,4.10
2017-09-08T04:56:54.498Z,3.30
2017-09-08T04:59:26.284Z,3.40
2017-09-08T05:01:58.034Z,3.77
2017-09-08T05:04:30.442Z,3.90
2017-09-08T05:07:02.754Z,3.50
2017-09-08T05:09:36.129Z,2.87
2017-09-08T05:12:07.506Z,3.40
2017-09-08T05:14:40.001Z,3.07
2017-09-08T05:17:11.741Z,3.23
2017-09-08T05:19:43.454Z,3.40
2017-09-08T05:22:18.138Z,3.27
2017-09-08T05:24:53.999Z,3.20
2017-09-08T05:27:25.096Z,2.60
2017-09-08T05:29:56.900Z,2.90
2017-09-08T05:32:29.562Z,2.93
2017-09-08T05:35:01.254Z,3.33
2017-09-08T05:37:34.003Z,3.27
2017-09-08T05:40:06.922Z,3.73
2017-09-08T05:42:38.220Z,3.23
2017-09-08T05:45:11.054Z,2.93
2017-09-08T05:47:42.549Z,3.00
2017-09-08T05:50:25.135Z,3.30
2017-09-08T05:52:56.861Z,3.63
2017-09-08T05:55:28.102Z,3.10
2017-09-08T05:57:59.099Z,2.50
2017-09-08T06:00:31.701Z,2.73
2017-09-08T06:03:02.825Z,3.20
2017-09-08T06:05:35.760Z,2.90
2017-09-08T06:08:08.442Z,3.40
2017-09-08T06:10:40.706Z,3.83
2017-09-08T06:13:13.750Z,3.93
2017-09-08T06:15:46.073Z,4.90
2017-09-08T06:18:17.903Z,4.00
2017-09-08T06:20:49.330Z,4.10
2017-09-08T06:23:20.681Z,8.57
2017-09-08T06:25:54.491Z,9.60
2017-09-08T06:28:25.671Z,10.57
2017-09-08T06:30:56.957Z,9.30
2017-09-08T06:33:30.589Z,11.47
2017-09-08T06:36:03.507Z,11.10
2017-09-08T06:38:35.009Z,9.47
2017-09-08T06:41:07.103Z,10.03
2017-09-08T06:43:38.423Z,11.50
2017-09-08T06:46:14.638Z,11.43
2017-09-08T06:48:46.483Z,9.27
2017-09-08T06:51:19.608Z,9.90
2017-09-08T06:53:51.738Z,9.90
2017-09-08T06:56:23.252Z,10.83
2017-09-08T06:58:56.163Z,8.87
2017-09-08T07:01:28.080Z,9.13
2017-09-08T07:04:00.062Z,10.60
2017-09-08T07:06:31.682Z,9.70
2017-09-08T07:09:03.104Z,9.67
2017-09-08T07:11:34.854Z,9.90
2017-09-08T07:14:10.914Z,11.00
2017-09-08T07:16:43.466Z,9.93
2017-09-08T07:19:23.309Z,8.43
2017-09-08T07:21:57.094Z,8.90
2017-09-08T07:24:31.336Z,9.43
2017-09-08T07:27:08.737Z,9.10
2017-09-08T07:29:45.103Z,9.10
2017-09-08T07:32:17.484Z,9.30
2017-09-08T07:34:49.819Z,8.20
2017-09-08T07:37:21.572Z,9.50
2017-09-08T07:39:53.319Z,9.00
2017-09-08T07:42:27.991Z,9.10
2017-09-08T07:45:00.892Z,8.90
2017-09-08T07:47:36.890Z,7.33
2017-09-08T07:50:08.126Z,7.80
2017-09-08T07:52:39.950Z,8.17
2017-09-08T07:55:14.597Z,7.83
2017-09-08T07:57:46.880Z,9.10
2017-09-08T08:00:18.804Z,8.97
2017-09-08T08:02:50.793Z,8.67
2017-09-08T08:05:22.446Z,7.30
2017-09-08T08:07:53.767Z,7.73
2017-09-08T08:10:25.340Z,8.00
2017-09-08T08:12:56.455Z,8.13
2017-09-08T08:15:28.362Z,8.77
2017-09-08T08:17:59.637Z,7.10
2017-09-08T08:20:31.799Z,7.80
2017-09-08T08:23:04.066Z,7.93
2017-09-08T08:25:35.766Z,7.93
2017-09-08T08:28:07.414Z,7.73
2017-09-08T08:30:39.764Z,7.07
2017-09-08T08:33:12.538Z,8.03
2017-09-08T08:35:44.624Z,7.80
2017-09-08T08:38:18.111Z,7.37
2017-09-08T08:40:50.514Z,7.30
2017-09-08T08:43:25.281Z,7.33
2017-09-08T08:45:57.386Z,8.20
2017-09-08T08:48:30.875Z,7.23
2017-09-08T08:51:02.394Z,7.00
2017-09-08T08:53:34.072Z,7.60
2017-09-08T08:56:07.417Z,7.77
2017-09-08T08:58:38.666Z,6.47
2017-09-08T09:01:11.732Z,7.67
2017-09-08T09:03:43.310Z,6.83
2017-09-08T09:06:16.887Z,6.30
2017-09-08T09:08:51.278Z,6.87
2017-09-08T09:11:23.107Z,7.30
2017-09-08T09:13:55.145Z,5.90
2017-09-08T09:16:27.305Z,6.30
2017-09-08T09:18:59.043Z,6.13
2017-09-08T09:21:30.551Z,6.67
2017-09-08T09:24:02.597Z,6.87
2017-09-08T09:26:34.096Z,6.07
2017-09-08T09:29:05.593Z,6.17
2017-09-08T09:31:37.088Z,5.60
2017-09-08T09:34:08.316Z,6.43
2017-09-08T09:36:41.230Z,6.17
2017-09-08T09:39:15.249Z,5.93
2017-09-08T09:41:46.346Z,6.37
2017-09-08T09:44:18.406Z,5.90
2017-09-08T09:46:49.478Z,6.63
2017-09-08T09:49:21.234Z,6.83
2017-09-08T09:51:52.358Z,5.30
2017-09-08T09:54:23.836Z,6.27
2017-09-08T09:56:55.481Z,6.23
2017-09-08T09:59:26.626Z,6.00
2017-09-08T10:01:58.047Z,6.50
2017-09-08T10:04:29.996Z,6.00
2017-09-08T10:07:01.294Z,6.43
2017-09-08T10:09:33.818Z,5.47
2017-09-08T10:12:05.176Z,6.47
2017-09-08T10:14:40.168Z,5.90
2017-09-08T10:17:14.825Z,6.13
2017-09-08T10:19:46.510Z,5.50
2017-09-08T10:22:18.314Z,6.20
2017-09-08T10:24:49.504Z,6.17
2017-09-08T10:27:21.310Z,5.23
2017-09-08T10:29:53.297Z,5.17
2017-09-08T10:32:24.786Z,5.30
2017-09-08T10:34:59.667Z,5.40
2017-09-08T10:37:31.019Z,5.10
2017-09-08T10:40:03.884Z,4.53
2017-09-08T10:42:36.818Z,4.80
2017-09-08T10:45:11.853Z,4.67
2017-09-08T10:47:44.903Z,4.83
2017-09-08T10:50:20.038Z,5.23
2017-09-08T10:52:51.920Z,5.33
2017-09-08T10:55:23.095Z,5.37
2017-09-08T10:57:55.948Z,4.90
2017-09-08T11:00:27.066Z,5.20
2017-09-08T11:02:58.115Z,5.33
2017-09-08T11:05:29.828Z,4.60
2017-09-08T11:08:01.833Z,5.00
2017-09-08T11:10:33.003Z,5.43
2017-09-08T11:13:04.252Z,5.00
2017-09-08T11:15:37.580Z,4.60
2017-09-08T11:18:11.144Z,5.47
2017-09-08T11:20:42.973Z,5.03
2017-09-08T11:23:15.007Z,4.30
2017-09-08T11:25:47.622Z,4.13
2017-09-08T11:28:19.745Z,5.17
2017-09-08T11:30:51.767Z,4.70
2017-09-08T11:33:28.542Z,5.00
2017-09-08T11:38:07.604Z,5.00
2017-09-08T11:40:39.034Z,4.50
2017-09-08T11:43:10.728Z,4.53
2017-09-08T11:45:42.037Z,5.10
2017-09-08T11:48:13.918Z,4.27
2017-09-08T11:50:45.168Z,4.10
2017-09-08T11:53:18.724Z,4.67
2017-09-08T11:55:50.906Z,4.20
2017-09-08T11:58:23.228Z,4.20
2017-09-08T12:00:55.010Z,4.40
2017-09-08T12:03:26.652Z,4.03
2017-09-08T12:06:07.906Z,3.93
2017-09-08T12:08:41.657Z,4.43
2017-09-08T12:11:15.136Z,4.40
2017-09-08T12:13:49.661Z,5.00
2017-09-08T12:16:21.630Z,4.60
2017-09-08T12:18:53.636Z,4.30
2017-09-08T12:21:26.730Z,4.20
2017-09-08T12:23:58.794Z,4.87
2017-09-08T12:26:32.647Z,3.50
2017-09-08T12:29:06.136Z,4.07
2017-09-08T12:31:37.616Z,4.03
2017-09-08T12:34:09.775Z,3.97
2017-09-08T12:36:42.448Z,3.90
2017-09-08T12:39:17.038Z,4.20
2017-09-08T12:41:52.239Z,3.50
2017-09-08T12:44:23.835Z,3.60
2017-09-08T12:46:55.274Z,4.80
2017-09-08T12:49:28.581Z,3.67
2017-09-08T12:52:01.009Z,4.00
2017-09-08T12:54:35.072Z,3.97
2017-09-08T12:57:08.289Z,4.20
2017-09-08T12:59:41.185Z,3.93
2017-09-08T13:02:16.911Z,4.13
2017-09-08T13:04:53.084Z,3.70
2017-09-08T13:07:25.191Z,3.50
2017-09-08T13:09:56.297Z,3.57
2017-09-08T13:12:28.154Z,3.83
2017-09-08T13:14:59.221Z,3.90
2017-09-08T13:17:31.547Z,3.87
2017-09-08T13:20:03.274Z,3.90
2017-09-08T13:22:34.410Z,3.73
2017-09-08T13:25:05.071Z,3.90
2017-09-08T13:27:36.554Z,3.50
2017-09-08T13:30:16.662Z,3.33
2017-09-08T13:32:55.887Z,4.00
2017-09-08T13:35:28.174Z,3.43
2017-09-08T13:38:00.578Z,3.03
2017-09-08T13:40:35.580Z,4.20
2017-09-08T13:45:53.122Z,3.57
2017-09-08T13:48:24.854Z,3.10
2017-09-08T13:50:57.280Z,3.77
2017-09-08T13:53:29.197Z,3.20
2017-09-08T13:56:05.236Z,3.40
2017-09-08T13:58:50.856Z,3.40
2017-09-08T14:01:22.842Z,3.40
2017-09-08T14:03:54.831Z,3.33
2017-09-08T14:06:26.371Z,3.57
2017-09-08T14:08:59.072Z,3.50
2017-09-08T14:11:30.867Z,4.13
2017-09-08T14:14:02.847Z,3.10
2017-09-08T14:16:34.075Z,3.57
2017-09-08T14:19:06.124Z,3.13
2017-09-08T14:21:38.192Z,3.30
2017-09-08T14:24:09.741Z,2.90
2017-09-08T14:26:42.382Z,3.10
2017-09-08T14:29:14.557Z,3.20
2017-09-08T14:31:45.895Z,3.20
2017-09-08T14:34:18.318Z,3.20
2017-09-08T14:36:51.380Z,3.00
2017-09-08T14:39:25.086Z,3.20
2017-09-08T14:41:57.080Z,3.33
2017-09-08T14:44:28.429Z,3.10
2017-09-08T14:47:00.639Z,3.00
2017-09-08T14:49:32.415Z,2.80
2017-09-08T14:52:04.470Z,3.53
2017-09-08T14:54:35.982Z,3.27
2017-09-08T14:57:07.578Z,3.30
2017-09-08T14:59:39.755Z,3.30
2017-09-08T15:02:13.312Z,2.90
2017-09-08T15:04:45.014Z,2.43
2017-09-08T15:07:18.909Z,3.10
2017-09-08T15:09:51.675Z,3.07
2017-09-08T15:12:28.402Z,3.07
2017-09-08T15:15:01.089Z,3.03
2017-09-08T15:17:39.220Z,2.87
2017-09-08T15:20:16.272Z,2.67
2017-09-08T15:22:47.932Z,3.27
2017-09-08T15:25:23.955Z,3.37
2017-09-08T15:27:56.229Z,2.47
2017-09-08T15:30:28.365Z,2.90
2017-09-08T15:33:33.943Z,3.27
2017-09-08T15:36:23.852Z,3.10
2017-09-08T15:44:22.442Z,2.43
2017-09-08T15:47:15.305Z,3.17
2017-09-08T15:53:15.844Z,3.10
2017-09-08T15:55:49.095Z,3.17
2017-09-08T16:03:32.186Z,2.90
2017-09-08T16:06:04.488Z,2.77
2017-09-08T16:08:36.886Z,3.10
2017-09-08T16:11:08.409Z,2.80
2017-09-08T16:13:40.538Z,2.80
2017-09-08T16:16:14.791Z,2.73
2017-09-08T16:18:46.117Z,2.63
2017-09-08T16:21:17.530Z,2.70
2017-09-08T16:23:48.751Z,2.60
2017-09-08T16:26:21.735Z,2.60
2017-09-08T16:28:54.351Z,2.83
2017-09-08T16:31:27.481Z,2.30
2017-09-08T16:33:59.190Z,2.63
2017-09-08T16:36:31.783Z,2.60
2017-09-08T16:39:03.786Z,2.60
2017-09-08T16:41:35.073Z,2.67
2017-09-08T16:44:07.210Z,2.53
2017-09-08T16:46:39.660Z,3.07
2017-09-08T16:49:31.238Z,2.50
2017-09-08T16:52:57.636Z,2.50
2017-09-08T16:55:58.816Z,2.67
2017-09-08T16:58:43.431Z,2.40
2017-09-08T17:04:22.758Z,2.50
2017-09-08T17:14:38.011Z,2.70
2017-09-08T17:28:01.818Z,2.63
2017-09-08T18:20:14.085Z,3.10
2017-09-08T18:22:49.518Z,2.50
2017-09-08T18:25:20.991Z,2.70
2017-09-08T18:27:52.618Z,2.67
2017-09-08T18:30:23.809Z,2.60
2017-09-08T18:32:55.763Z,2.23
2017-09-08T18:35:27.921Z,2.20
2017-09-08T18:37:59.399Z,2.60
2017-09-08T18:40:30.597Z,2.60
2017-09-08T18:43:01.968Z,2.30
2017-09-08T18:45:34.977Z,2.40
2017-09-08T18:48:06.885Z,2.20
2017-09-08T18:50:38.208Z,2.97
2017-09-08T18:53:12.632Z,2.57
2017-09-08T18:55:44.630Z,3.13
2017-09-08T18:58:15.747Z,2.70
2017-09-08T19:00:47.160Z,2.50
2017-09-08T19:03:20.187Z,2.83
2017-09-08T19:05:51.346Z,2.60
2017-09-08T19:08:22.984Z,2.80
2017-09-08T19:10:55.160Z,2.60
2017-09-08T19:13:26.710Z,2.63
2017-09-08T19:15:59.118Z,2.10
2017-09-08T19:18:31.691Z,2.30
2017-09-08T19:21:03.303Z,2.93
2017-09-08T19:23:35.806Z,2.43
2017-09-08T19:26:07.600Z,2.43
2017-09-08T19:28:38.726Z,2.30
2017-09-08T19:31:09.857Z,2.87
2017-09-08T19:33:41.505Z,3.00
2017-09-08T19:36:15.947Z,2.80
2017-09-08T19:38:47.352Z,2.90
2017-09-08T19:41:19.393Z,2.47
2017-09-08T19:43:51.443Z,2.93
2017-09-08T19:46:24.207Z,2.70
2017-09-08T19:48:56.347Z,3.10
2017-09-08T19:51:27.955Z,2.90
2017-09-08T19:53:59.175Z,2.40
2017-09-08T19:56:30.653Z,2.23
2017-09-08T19:59:02.138Z,2.90
2017-09-08T20:01:33.369Z,2.83
2017-09-08T20:04:04.962Z,2.87
2017-09-08T20:06:37.136Z,2.33
2017-09-08T20:09:08.985Z,2.90
2017-09-08T20:11:40.641Z,2.67
2017-09-08T20:14:12.126Z,2.63
2017-09-08T20:16:44.089Z,2.73
2017-09-08T20:19:18.897Z,2.83
2017-09-08T20:21:51.463Z,2.80
2017-09-08T20:24:22.664Z,2.47
2017-09-08T20:26:54.645Z,2.43
2017-09-08T20:29:25.735Z,3.50
2017-09-08T20:31:57.080Z,2.73
2017-09-08T20:34:29.355Z,2.63
2017-09-08T20:37:00.746Z,2.80
2017-09-08T20:39:32.393Z,2.87
2017-09-08T20:42:04.565Z,3.00
2017-09-08T20:44:35.765Z,2.77
2017-09-08T20:47:07.089Z,2.93
2017-09-08T20:49:38.171Z,2.37
2017-09-08T20:52:09.354Z,2.27
2017-09-08T20:54:41.076Z,2.43
2017-09-08T20:57:14.983Z,2.63
2017-09-08T20:59:46.621Z,2.60
2017-09-08T21:02:18.061Z,2.43
2017-09-08T21:04:49.793Z,2.53
2017-09-08T21:07:21.787Z,2.67
2017-09-08T21:09:54.506Z,2.43
2017-09-08T21:12:28.312Z,2.57
2017-09-08T21:15:00.240Z,2.57
2017-09-08T21:17:31.696Z,2.80
2017-09-08T21:20:04.402Z,2.57
2017-09-08T21:22:35.857Z,2.60
2017-09-08T21:25:07.563Z,2.83
2017-09-08T21:27:39.052Z,2.70
2017-09-08T21:30:13.640Z,2.67
2017-09-08T21:32:44.807Z,2.27
2017-09-08T21:35:17.119Z,2.50
2017-09-08T21:37:48.969Z,2.93
2017-09-08T21:40:20.832Z,2.20
2017-09-08T21:42:52.384Z,2.27
2017-09-08T21:45:24.363Z,2.33
2017-09-08T21:47:55.557Z,2.27
2017-09-08T21:50:27.889Z,2.80
2017-09-08T21:52:59.938Z,2.47
2017-09-08T21:55:31.099Z,2.50
2017-09-08T21:58:03.538Z,2.43
2017-09-08T22:00:35.989Z,3.00
2017-09-08T22:05:47.051Z,3.33
2017-09-08T22:51:09.031Z,2.70
2017-09-08T22:53:41.069Z,3.20
2017-09-08T22:56:14.848Z,2.60
2017-09-08T22:58:46.210Z,2.97
2017-09-08T23:01:17.606Z,2.67
2017-09-08T23:03:48.746Z,2.70
2017-09-08T23:06:20.020Z,3.03
2017-09-08T23:08:51.561Z,3.00
2017-09-08T23:11:22.763Z,3.30
2017-09-08T23:13:53.953Z,3.30
2017-09-08T23:16:25.691Z,2.77
2017-09-08T23:18:56.990Z,3.13
2017-09-08T23:21:28.646Z,2.63
2017-09-08T23:24:00.458Z,2.57
2017-09-08T23:26:32.545Z,2.97
2017-09-08T23:29:04.131Z,2.40
2017-09-08T23:31:35.879Z,3.60
2017-09-08T23:34:07.440Z,3.10
2017-09-08T23:36:39.226Z,3.00
2017-09-08T23:39:13.877Z,3.07
2017-09-08T23:41:45.497Z,3.03
2017-09-08T23:44:17.156Z,2.67
2017-09-08T23:46:49.268Z,2.80
2017-09-08T23:49:21.775Z,3.00
2017-09-08T23:51:54.042Z,3.17
2017-09-08T23:54:25.834Z,2.50
2017-09-08T23:56:57.323Z,3.27
2017-09-08T23:59:29.154Z,3.03
